Time;durP1;ratioP1;P1;durP2;ratioP2;P2;SDS_P1;SDS_P2;PMS_P1;PMS_P2;Temp;Humidity;BMP_temperature;BMP_pressure;BME280_temperature;BME280_humidity;BME280_pressure;Samples;Min_cycle;Max_cycle;Signal;HPM_P1;HPM_P2
2022/06/10 00:00:05;;;;;;;;;;;;;;;;;;343332;28;922;-83
2022/06/10 00:00:17;;;;;;;;;;;;;;;;;;343223;28;984;-83
2022/06/10 00:00:28;;;;;;;;;;;;;;;;;;343307;28;945;-83
2022/06/10 00:00:40;;;;;;;;;;;;;;;;;;343262;28;1376;-83
2022/06/10 00:00:51;;;;;;;;;;;;;;;;;;343299;28;977;-83
2022/06/10 00:01:02;;;;;;;;;;;;;;;;;;343355;28;1877;-82
2022/06/10 00:01:13;;;;;;;;;;;;;;;;;;343266;28;1101;-83
2022/06/10 00:01:23;;;;;;;;;;;;;;;;;;343325;28;925;-83
2022/06/10 00:01:35;;;;;;;;;;;;;;;;;;343327;28;949;-83
2022/06/10 00:01:45;;;;;;;;;;;;;;;;;;343281;28;950;-83
2022/06/10 00:01:55;;;;;;;;;;;;;;;;;;343228;28;1069;-83
2022/06/10 00:02:06;;;;;;;;;;;;;;;;;;343287;28;938;-83
2022/06/10 00:02:16;;;;;;;;;;;;;;;;;;343322;28;1034;-83
2022/06/10 00:02:26;;;;;;;;;;;;;;;;;;343280;28;918;-83
2022/06/10 00:02:36;;;;;;;;;;;;;;;;;;343317;28;925;-83
2022/06/10 00:02:47;;;;;;;;;;;;;;;;;;343312;28;1021;-83
2022/06/10 00:02:57;;;;;;;;;;;;;;;;;;343252;28;997;-83
2022/06/10 00:03:12;;;;;;;;;;;;;;;;;;343352;28;851;-83
2022/06/10 00:03:25;;;;;;;;;;;;;;;;;;343321;28;976;-84
2022/06/10 00:03:36;;;;;;;;;;;;;;;;;;343299;28;913;-83
2022/06/10 00:03:46;;;;;;;;;;;;;;;;;;343313;28;922;-83
2022/06/10 00:03:56;;;;;;;;;;;;;;;;;;343247;28;788;-83
2022/06/10 00:04:06;;;;;;;;;;;;;;;;;;343318;28;1093;-83
2022/06/10 00:04:16;;;;;;;;;;;;;;;;;;343300;28;810;-83
2022/06/10 00:04:27;;;;;;;;;;;;;;;;;;343273;28;1004;-83
2022/06/10 00:04:37;;;;;;;;;;;;;;;;;;343339;28;973;-84
2022/06/10 00:04:47;;;;;;;;;;;;;;;;;;343344;28;862;-83
2022/06/10 00:04:57;;;;;;;;;;;;;;;;;;343306;28;791;-83
2022/06/10 00:05:08;;;;;;;;;;;;;;;;;;343276;28;977;-83
2022/06/10 00:05:19;;;;;;;;;;;;;;;;;;343276;28;945;-82
2022/06/10 00:05:31;;;;;;;;;;;;;;;;;;343350;28;1178;-83
2022/06/10 00:05:43;;;;;;;;;;;;;;;;;;343301;28;957;-83
2022/06/10 00:05:55;;;;;;;;;;;;;;;;;;343299;28;780;-83
2022/06/10 00:06:06;;;;;;;;;;;;;;;;;;343334;28;918;-83
2022/06/10 00:06:17;;;;;;;;;;;;;;;;;;343279;28;993;-83
2022/06/10 00:06:27;;;;;;;;;;;;;;;;;;343319;28;1000;-82
2022/06/10 00:06:37;;;;;;;;;;;;;;;;;;343315;28;815;-83
2022/06/10 00:06:47;;;;;;;;;;;;;;;;;;343315;28;984;-83
2022/06/10 00:06:57;;;;;;;;;;;;;;;;;;343241;28;921;-83
2022/06/10 00:07:08;;;;;;;;;;;;;;;;;;343319;28;777;-83
2022/06/10 00:07:18;;;;;;;;;;;;;;;;;;343309;28;934;-83
2022/06/10 00:07:34;;;;;;;;;;;;;;;;;;343192;28;1140;-83
2022/06/10 00:07:44;;;;;;;;;;;;;;;;;;343342;28;1008;-83
2022/06/10 00:07:54;;;;;;;;;;;;;;;;;;343279;28;918;-83
2022/06/10 00:08:10;;;;;;;;;;;;;;;;;;343282;28;827;-83
2022/06/10 00:08:21;;;;;;;;;;;;;;;;;;343146;28;1437;-83
2022/06/10 00:08:36;;;;;;;;;;;;;;;;;;343336;28;867;-83
2022/06/10 00:08:47;;;;;;;;;;;;;;;;;;343285;28;1910;-83
2022/06/10 00:08:58;;;;;;;;;;;;;;;;;;343301;28;826;-84
2022/06/10 00:09:08;;;;;;;;;;;;;;;;;;343303;28;997;-83
2022/06/10 00:09:18;;;;;;;;;;;;;;;;;;343339;28;914;-83
2022/06/10 00:09:28;;;;;;;;;;;;;;;;;;343357;28;807;-83
2022/06/10 00:09:38;;;;;;;;;;;;;;;;;;343268;28;910;-83
2022/06/10 00:09:49;;;;;;;;;;;;;;;;;;343309;28;961;-83
2022/06/10 00:09:59;;;;;;;;;;;;;;;;;;343282;28;1021;-84
2022/06/10 00:10:11;;;;;;;;;;;;;;;;;;343297;28;921;-83
2022/06/10 00:10:23;;;;;;;;;;;;;;;;;;343268;28;949;-83
2022/06/10 00:10:34;;;;;;;;;;;;;;;;;;343281;28;1195;-83
2022/06/10 00:10:45;;;;;;;;;;;;;;;;;;343322;28;913;-83
2022/06/10 00:10:57;;;;;;;;;;;;;;;;;;343305;28;957;-83
2022/06/10 00:11:08;;;;;;;;;;;;;;;;;;343225;28;945;-83
2022/06/10 00:11:18;;;;;;;;;;;;;;;;;;343263;28;918;-83
2022/06/10 00:11:29;;;;;;;;;;;;;;;;;;343270;28;1029;-83
2022/06/10 00:11:39;;;;;;;;;;;;;;;;;;343322;28;934;-83
2022/06/10 00:11:49;;;;;;;;;;;;;;;;;;343292;28;918;-83
2022/06/10 00:11:59;;;;;;;;;;;;;;;;;;343274;28;1001;-83
2022/06/10 00:12:10;;;;;;;;;;;;;;;;;;343306;28;980;-83
2022/06/10 00:12:20;;;;;;;;;;;;;;;;;;343303;28;965;-83
2022/06/10 00:12:30;;;;;;;;;;;;;;;;;;343290;28;969;-83
2022/06/10 00:12:40;;;;;;;;;;;;;;;;;;343320;28;921;-83
2022/06/10 00:12:51;;;;;;;;;;;;;;;;;;343332;28;996;-83
2022/06/10 00:13:01;;;;;;;;;;;;;;;;;;343311;28;937;-83
2022/06/10 00:13:12;;;;;;;;;;;;;;;;;;343237;28;1008;-83
2022/06/10 00:13:25;;;;;;;;;;;;;;;;;;343349;28;882;-83
2022/06/10 00:13:37;;;;;;;;;;;;;;;;;;343293;28;980;-83
2022/06/10 00:13:47;;;;;;;;;;;;;;;;;;343275;28;1001;-83
2022/06/10 00:13:57;;;;;;;;;;;;;;;;;;343322;28;934;-83
2022/06/10 00:14:08;;;;;;;;;;;;;;;;;;343292;28;906;-83
2022/06/10 00:14:18;;;;;;;;;;;;;;;;;;343309;28;937;-83
2022/06/10 00:14:29;;;;;;;;;;;;;;;;;;343247;28;941;-83
2022/06/10 00:14:39;;;;;;;;;;;;;;;;;;343309;28;933;-83
2022/06/10 00:14:50;;;;;;;;;;;;;;;;;;343320;28;949;-83
2022/06/10 00:15:00;;;;;;;;;;;;;;;;;;343261;28;950;-84
2022/06/10 00:15:10;;;;;;;;;;;;;;;;;;343274;28;937;-83
2022/06/10 00:15:21;;;;;;;;;;;;;;;;;;343308;28;925;-83
2022/06/10 00:15:31;;;;;;;;;;;;;;;;;;343262;28;1072;-83
2022/06/10 00:15:43;;;;;;;;;;;;;;;;;;343329;28;934;-83
2022/06/10 00:15:54;;;;;;;;;;;;;;;;;;343284;28;1009;-83
2022/06/10 00:16:04;;;;;;;;;;;;;;;;;;343271;28;993;-82
2022/06/10 00:16:17;;;;;;;;;;;;;;;;;;343278;28;926;-83
2022/06/10 00:16:27;;;;;;;;;;;;;;;;;;343187;28;996;-83
2022/06/10 00:16:38;;;;;;;;;;;;;;;;;;343280;28;906;-83
2022/06/10 00:16:49;;;;;;;;;;;;;;;;;;343293;28;954;-83
2022/06/10 00:16:59;;;;;;;;;;;;;;;;;;343387;28;850;-83
2022/06/10 00:17:09;;;;;;;;;;;;;;;;;;343234;28;914;-83
2022/06/10 00:17:20;;;;;;;;;;;;;;;;;;343342;28;930;-83
2022/06/10 00:17:30;;;;;;;;;;;;;;;;;;343327;28;878;-83
2022/06/10 00:17:40;;;;;;;;;;;;;;;;;;343286;28;966;-83
2022/06/10 00:17:51;;;;;;;;;;;;;;;;;;343240;28;815;-83
2022/06/10 00:18:01;;;;;;;;;;;;;;;;;;343338;28;933;-83
2022/06/10 00:18:12;;;;;;;;;;;;;;;;;;343250;28;926;-83
2022/06/10 00:18:23;;;;;;;;;;;;;;;;;;343322;28;934;-83
2022/06/10 00:18:34;;;;;;;;;;;;;;;;;;343205;28;807;-83
2022/06/10 00:18:44;;;;;;;;;;;;;;;;;;343267;28;1006;-83
2022/06/10 00:18:56;;;;;;;;;;;;;;;;;;343312;28;1206;-83
2022/06/10 00:19:06;;;;;;;;;;;;;;;;;;343244;28;917;-83
2022/06/10 00:19:16;;;;;;;;;;;;;;;;;;343283;28;888;-83
2022/06/10 00:19:27;;;;;;;;;;;;;;;;;;343335;28;874;-83
2022/06/10 00:19:37;;;;;;;;;;;;;;;;;;343317;28;962;-84
2022/06/10 00:19:47;;;;;;;;;;;;;;;;;;343294;28;959;-83
2022/06/10 00:19:57;;;;;;;;;;;;;;;;;;343262;28;1017;-83
2022/06/10 00:20:09;;;;;;;;;;;;;;;;;;343315;28;945;-83
2022/06/10 00:20:21;;;;;;;;;;;;;;;;;;343287;28;867;-83
2022/06/10 00:20:32;;;;;;;;;;;;;;;;;;342971;28;1069;-83
2022/06/10 00:20:43;;;;;;;;;;;;;;;;;;343294;28;842;-83
2022/06/10 00:20:54;;;;;;;;;;;;;;;;;;343348;28;874;-83
2022/06/10 00:21:06;;;;;;;;;;;;;;;;;;343261;28;881;-83
2022/06/10 00:21:17;;;;;;;;;;;;;;;;;;343276;28;922;-83
2022/06/10 00:21:27;;;;;;;;;;;;;;;;;;343293;28;866;-84
2022/06/10 00:21:37;;;;;;;;;;;;;;;;;;343338;28;980;-83
2022/06/10 00:21:48;;;;;;;;;;;;;;;;;;343281;28;887;-83
2022/06/10 00:21:58;;;;;;;;;;;;;;;;;;343334;28;913;-83
2022/06/10 00:22:08;;;;;;;;;;;;;;;;;;343336;28;854;-83
2022/06/10 00:22:18;;;;;;;;;;;;;;;;;;343223;28;997;-83
2022/06/10 00:22:29;;;;;;;;;;;;;;;;;;343264;28;1133;-83
2022/06/10 00:22:39;;;;;;;;;;;;;;;;;;343250;28;1025;-83
2022/06/10 00:22:49;;;;;;;;;;;;;;;;;;343246;28;966;-83
2022/06/10 00:23:00;;;;;;;;;;;;;;;;;;343366;28;839;-83
2022/06/10 00:23:10;;;;;;;;;;;;;;;;;;343308;28;835;-83
2022/06/10 00:23:20;;;;;;;;;;;;;;;;;;343222;28;921;-83
2022/06/10 00:23:31;;;;;;;;;;;;;;;;;;343253;28;1001;-83
2022/06/10 00:23:41;;;;;;;;;;;;;;;;;;343304;28;910;-83
2022/06/10 00:23:51;;;;;;;;;;;;;;;;;;343257;28;937;-83
2022/06/10 00:24:01;;;;;;;;;;;;;;;;;;343325;28;1010;-83
2022/06/10 00:24:12;;;;;;;;;;;;;;;;;;343276;28;930;-83
2022/06/10 00:24:22;;;;;;;;;;;;;;;;;;343260;28;795;-83
2022/06/10 00:24:32;;;;;;;;;;;;;;;;;;343281;28;1021;-83
2022/06/10 00:24:42;;;;;;;;;;;;;;;;;;343213;28;997;-83
2022/06/10 00:24:52;;;;;;;;;;;;;;;;;;343257;28;937;-84
2022/06/10 00:25:03;;;;;;;;;;;;;;;;;;343311;28;985;-83
2022/06/10 00:25:14;;;;;;;;;;;;;;;;;;343278;28;985;-83
2022/06/10 00:25:24;;;;;;;;;;;;;;;;;;343195;28;1021;-83
2022/06/10 00:25:34;;;;;;;;;;;;;;;;;;343321;28;968;-83
2022/06/10 00:25:45;;;;;;;;;;;;;;;;;;343062;28;1017;-83
2022/06/10 00:25:55;;;;;;;;;;;;;;;;;;343279;28;998;-83
2022/06/10 00:26:06;;;;;;;;;;;;;;;;;;343272;28;961;-83
2022/06/10 00:26:16;;;;;;;;;;;;;;;;;;343186;28;1052;-83
2022/06/10 00:26:26;;;;;;;;;;;;;;;;;;343297;28;925;-83
2022/06/10 00:26:37;;;;;;;;;;;;;;;;;;343272;28;933;-83
2022/06/10 00:26:47;;;;;;;;;;;;;;;;;;343251;28;913;-83
2022/06/10 00:26:57;;;;;;;;;;;;;;;;;;343253;28;989;-83
2022/06/10 00:27:07;;;;;;;;;;;;;;;;;;343304;28;992;-83
2022/06/10 00:27:18;;;;;;;;;;;;;;;;;;343228;28;845;-83
2022/06/10 00:27:28;;;;;;;;;;;;;;;;;;343330;28;945;-83
2022/06/10 00:27:39;;;;;;;;;;;;;;;;;;343297;28;977;-83
2022/06/10 00:27:49;;;;;;;;;;;;;;;;;;343214;28;803;-82
2022/06/10 00:28:00;;;;;;;;;;;;;;;;;;343330;28;954;-83
2022/06/10 00:28:10;;;;;;;;;;;;;;;;;;343270;28;922;-83
2022/06/10 00:28:20;;;;;;;;;;;;;;;;;;343229;28;1001;-83
2022/06/10 00:28:31;;;;;;;;;;;;;;;;;;343303;28;894;-83
2022/06/10 00:28:43;;;;;;;;;;;;;;;;;;343196;28;1961;-83
2022/06/10 00:28:53;;;;;;;;;;;;;;;;;;343188;28;1060;-83
2022/06/10 00:29:04;;;;;;;;;;;;;;;;;;343266;28;938;-83
2022/06/10 00:29:14;;;;;;;;;;;;;;;;;;343290;28;925;-84
2022/06/10 00:29:24;;;;;;;;;;;;;;;;;;343167;28;926;-83
2022/06/10 00:29:35;;;;;;;;;;;;;;;;;;343312;28;874;-83
2022/06/10 00:29:46;;;;;;;;;;;;;;;;;;343322;28;962;-83
2022/06/10 00:29:56;;;;;;;;;;;;;;;;;;343271;28;999;-83
2022/06/10 00:30:07;;;;;;;;;;;;;;;;;;343319;28;901;-83
2022/06/10 00:30:20;;;;;;;;;;;;;;;;;;343268;28;930;-83
2022/06/10 00:30:31;;;;;;;;;;;;;;;;;;343215;28;939;-83
2022/06/10 00:30:41;;;;;;;;;;;;;;;;;;343269;28;981;-84
2022/06/10 00:30:52;;;;;;;;;;;;;;;;;;343274;28;871;-83
2022/06/10 00:31:02;;;;;;;;;;;;;;;;;;343237;28;839;-83
2022/06/10 00:31:13;;;;;;;;;;;;;;;;;;343269;28;906;-83
2022/06/10 00:31:23;;;;;;;;;;;;;;;;;;343163;28;1001;-82
2022/06/10 00:31:33;;;;;;;;;;;;;;;;;;343299;28;933;-83
2022/06/10 00:31:44;;;;;;;;;;;;;;;;;;343334;28;915;-83
2022/06/10 00:31:54;;;;;;;;;;;;;;;;;;343215;28;982;-83
2022/06/10 00:32:05;;;;;;;;;;;;;;;;;;343294;28;922;-83
2022/06/10 00:32:17;;;;;;;;;;;;;;;;;;343328;28;815;-83
2022/06/10 00:32:27;;;;;;;;;;;;;;;;;;343228;28;993;-83
2022/06/10 00:32:37;;;;;;;;;;;;;;;;;;343322;28;930;-83
2022/06/10 00:32:48;;;;;;;;;;;;;;;;;;343278;28;965;-83
2022/06/10 00:32:59;;;;;;;;;;;;;;;;;;343325;28;925;-83
2022/06/10 00:33:10;;;;;;;;;;;;;;;;;;343279;28;862;-83
2022/06/10 00:33:20;;;;;;;;;;;;;;;;;;343213;28;855;-83
2022/06/10 00:33:33;;;;;;;;;;;;;;;;;;343276;28;1118;-83
2022/06/10 00:33:43;;;;;;;;;;;;;;;;;;343225;28;965;-83
2022/06/10 00:33:54;;;;;;;;;;;;;;;;;;343291;28;1012;-83
2022/06/10 00:34:04;;;;;;;;;;;;;;;;;;343323;28;827;-83
2022/06/10 00:34:14;;;;;;;;;;;;;;;;;;343244;28;789;-83
2022/06/10 00:34:25;;;;;;;;;;;;;;;;;;343305;28;891;-83
2022/06/10 00:34:36;;;;;;;;;;;;;;;;;;343289;28;858;-83
2022/06/10 00:34:46;;;;;;;;;;;;;;;;;;343199;28;958;-83
2022/06/10 00:34:56;;;;;;;;;;;;;;;;;;343321;28;933;-83
2022/06/10 00:35:07;;;;;;;;;;;;;;;;;;343240;28;857;-82
2022/06/10 00:35:17;;;;;;;;;;;;;;;;;;343105;28;1093;-83
2022/06/10 00:35:28;;;;;;;;;;;;;;;;;;343316;28;910;-83
2022/06/10 00:35:39;;;;;;;;;;;;;;;;;;343306;28;917;-83
2022/06/10 00:35:49;;;;;;;;;;;;;;;;;;343268;28;797;-83
2022/06/10 00:35:59;;;;;;;;;;;;;;;;;;343285;28;790;-83
2022/06/10 00:36:10;;;;;;;;;;;;;;;;;;343310;28;891;-83
2022/06/10 00:36:21;;;;;;;;;;;;;;;;;;343296;28;862;-83
2022/06/10 00:36:31;;;;;;;;;;;;;;;;;;343215;28;913;-83
2022/06/10 00:36:41;;;;;;;;;;;;;;;;;;343318;28;973;-83
2022/06/10 00:36:51;;;;;;;;;;;;;;;;;;343279;28;870;-83
2022/06/10 00:37:03;;;;;;;;;;;;;;;;;;343297;28;995;-83
2022/06/10 00:37:13;;;;;;;;;;;;;;;;;;343198;28;871;-83
2022/06/10 00:37:24;;;;;;;;;;;;;;;;;;343350;28;886;-83
2022/06/10 00:37:34;;;;;;;;;;;;;;;;;;343230;28;945;-83
2022/06/10 00:37:45;;;;;;;;;;;;;;;;;;343315;28;862;-83
2022/06/10 00:37:56;;;;;;;;;;;;;;;;;;343268;28;985;-83
2022/06/10 00:38:06;;;;;;;;;;;;;;;;;;343343;28;835;-83
2022/06/10 00:38:17;;;;;;;;;;;;;;;;;;343307;28;842;-83
2022/06/10 00:38:28;;;;;;;;;;;;;;;;;;343310;28;962;-83
2022/06/10 00:38:38;;;;;;;;;;;;;;;;;;343160;28;1053;-83
2022/06/10 00:38:48;;;;;;;;;;;;;;;;;;343244;28;933;-83
2022/06/10 00:38:59;;;;;;;;;;;;;;;;;;343390;28;898;-83
2022/06/10 00:39:09;;;;;;;;;;;;;;;;;;343287;28;961;-83
2022/06/10 00:39:19;;;;;;;;;;;;;;;;;;343166;28;982;-83
2022/06/10 00:39:30;;;;;;;;;;;;;;;;;;343313;28;862;-83
2022/06/10 00:39:40;;;;;;;;;;;;;;;;;;343273;28;988;-83
2022/06/10 00:39:50;;;;;;;;;;;;;;;;;;343318;28;930;-81
2022/06/10 00:40:01;;;;;;;;;;;;;;;;;;343245;28;990;-81
2022/06/10 00:40:24;;;;;;;;;;;;;;;;;;343267;28;945;-81
2022/06/10 00:40:35;;;;;;;;;;;;;;;;;;343248;28;885;-83
2022/06/10 00:40:47;;;;;;;;;;;;;;;;;;343191;28;887;-83
2022/06/10 00:40:58;;;;;;;;;;;;;;;;;;343296;28;803;-83
2022/06/10 00:41:08;;;;;;;;;;;;;;;;;;343272;28;954;-83
2022/06/10 00:41:19;;;;;;;;;;;;;;;;;;343283;28;795;-83
2022/06/10 00:41:29;;;;;;;;;;;;;;;;;;343170;28;925;-83
2022/06/10 00:41:44;;;;;;;;;;;;;;;;;;343278;28;882;-84
2022/06/10 00:41:54;;;;;;;;;;;;;;;;;;343273;28;938;-83
2022/06/10 00:42:05;;;;;;;;;;;;;;;;;;343283;28;878;-83
2022/06/10 00:42:15;;;;;;;;;;;;;;;;;;343196;28;974;-83
2022/06/10 00:42:26;;;;;;;;;;;;;;;;;;343293;28;918;-84
2022/06/10 00:42:37;;;;;;;;;;;;;;;;;;343254;28;926;-83
2022/06/10 00:42:48;;;;;;;;;;;;;;;;;;343281;28;945;-83
2022/06/10 00:42:58;;;;;;;;;;;;;;;;;;343227;28;946;-83
2022/06/10 00:43:16;;;;;;;;;;;;;;;;;;343277;28;787;-83
2022/06/10 00:43:28;;;;;;;;;;;;;;;;;;343254;28;937;-83
2022/06/10 00:43:39;;;;;;;;;;;;;;;;;;343251;28;977;-83
2022/06/10 00:43:49;;;;;;;;;;;;;;;;;;343219;28;934;-83
2022/06/10 00:43:59;;;;;;;;;;;;;;;;;;343309;28;854;-83
2022/06/10 00:44:28;;;;;;;;;;;;;;;;;;343301;28;992;-83
2022/06/10 00:44:46;;;;;;;;;;;;;;;;;;343230;28;866;-83
2022/06/10 00:44:57;;;;;;;;;;;;;;;;;;343303;28;815;-83
2022/06/10 00:45:27;;;;;;;;;;;;;;;;;;343324;28;811;-83
2022/06/10 00:45:56;;;;;;;;;;;;;;;;;;342980;28;881;-83
2022/06/10 00:46:11;;;;;;;;;;;;;;;;;;343275;28;869;-83
2022/06/10 00:46:34;;;;;;;;;;;;;;;;;;343232;28;984;-83
2022/06/10 00:46:44;;;;;;;;;;;;;;;;;;343203;28;921;-84
2022/06/10 00:46:54;;;;;;;;;;;;;;;;;;343226;28;1391;-83
2022/06/10 00:47:17;;;;;;;;;;;;;;;;;;343269;28;827;-83
2022/06/10 00:47:30;;;;;;;;;;;;;;;;;;343224;28;1009;-83
2022/06/10 00:47:42;;;;;;;;;;;;;;;;;;343244;28;806;-83
2022/06/10 00:47:52;;;;;;;;;;;;;;;;;;343223;28;989;-83
2022/06/10 00:48:02;;;;;;;;;;;;;;;;;;343321;28;791;-83
2022/06/10 00:48:14;;;;;;;;;;;;;;;;;;343277;28;1100;-82
2022/06/10 00:48:25;;;;;;;;;;;;;;;;;;343289;28;863;-83
2022/06/10 00:48:36;;;;;;;;;;;;;;;;;;343228;28;959;-83
2022/06/10 00:48:48;;;;;;;;;;;;;;;;;;343134;28;1907;-83
2022/06/10 00:49:05;;;;;;;;;;;;;;;;;;343299;28;952;-83
2022/06/10 00:49:16;;;;;;;;;;;;;;;;;;343232;28;991;-83
2022/06/10 00:49:26;;;;;;;;;;;;;;;;;;343216;28;921;-83
2022/06/10 00:49:36;;;;;;;;;;;;;;;;;;343288;28;944;-83
2022/06/10 00:49:49;;;;;;;;;;;;;;;;;;343214;28;885;-83
2022/06/10 00:50:05;;;;;;;;;;;;;;;;;;343230;28;1167;-83
2022/06/10 00:50:22;;;;;;;;;;;;;;;;;;343229;28;992;-83
2022/06/10 00:50:32;;;;;;;;;;;;;;;;;;343251;28;854;-83
2022/06/10 00:50:43;;;;;;;;;;;;;;;;;;343290;28;968;-83
2022/06/10 00:50:54;;;;;;;;;;;;;;;;;;343096;28;1006;-83
2022/06/10 00:51:24;;;;;;;;;;;;;;;;;;343212;28;929;-83
2022/06/10 00:51:41;;;;;;;;;;;;;;;;;;337731;29;1291;-83
2022/06/10 00:51:53;;;;;;;;;;;;;;;;;;337724;29;955;-83
2022/06/10 00:52:03;;;;;;;;;;;;;;;;;;337846;29;1040;-83
2022/06/10 00:52:22;;;;;;;;;;;;;;;;;;337731;29;1297;-82
2022/06/10 00:52:35;;;;;;;;;;;;;;;;;;337887;29;878;-83
2022/06/10 00:52:49;;;;;;;;;;;;;;;;;;341504;28;1003;-83
2022/06/10 00:53:01;;;;;;;;;;;;;;;;;;343265;28;941;-83
2022/06/10 00:53:13;;;;;;;;;;;;;;;;;;343266;28;1155;-83
2022/06/10 00:53:27;;;;;;;;;;;;;;;;;;343250;28;932;-83
2022/06/10 00:53:37;;;;;;;;;;;;;;;;;;343214;28;1080;-84
2022/06/10 00:53:52;;;;;;;;;;;;;;;;;;343275;28;933;-83
2022/06/10 00:54:09;;;;;;;;;;;;;;;;;;343047;28;1064;-83
2022/06/10 00:54:28;;;;;;;;;;;;;;;;;;343272;28;967;-83
2022/06/10 00:54:39;;;;;;;;;;;;;;;;;;343224;28;900;-83
2022/06/10 00:54:51;;;;;;;;;;;;;;;;;;343280;28;972;-83
2022/06/10 00:55:03;;;;;;;;;;;;;;;;;;343252;28;985;-83
2022/06/10 00:55:14;;;;;;;;;;;;;;;;;;343158;28;1004;-83
2022/06/10 00:55:30;;;;;;;;;;;;;;;;;;343251;28;977;-83
2022/06/10 00:55:42;;;;;;;;;;;;;;;;;;343266;28;899;-83
2022/06/10 00:55:54;;;;;;;;;;;;;;;;;;343197;28;984;-82
2022/06/10 00:56:07;;;;;;;;;;;;;;;;;;343196;28;1009;-83
2022/06/10 00:56:21;;;;;;;;;;;;;;;;;;343286;28;972;-83
2022/06/10 00:56:31;;;;;;;;;;;;;;;;;;343208;28;988;-83
2022/06/10 00:56:45;;;;;;;;;;;;;;;;;;343271;28;918;-83
2022/06/10 00:56:55;;;;;;;;;;;;;;;;;;343248;28;957;-83
2022/06/10 00:57:14;;;;;;;;;;;;;;;;;;343205;28;881;-83
2022/06/10 00:57:27;;;;;;;;;;;;;;;;;;343276;28;921;-83
2022/06/10 00:57:42;;;;;;;;;;;;;;;;;;343247;28;933;-83
2022/06/10 00:57:52;;;;;;;;;;;;;;;;;;343228;28;960;-83
2022/06/10 00:58:07;;;;;;;;;;;;;;;;;;343145;28;834;-83
2022/06/10 00:58:27;;;;;;;;;;;;;;;;;;343301;28;929;-83
2022/06/10 00:58:42;;;;;;;;;;;;;;;;;;343222;28;866;-83
2022/06/10 00:58:58;;;;;;;;;;;;;;;;;;343274;28;842;-84
2022/06/10 00:59:12;;;;;;;;;;;;;;;;;;343224;28;961;-82
2022/06/10 00:59:25;;;;;;;;;;;;;;;;;;343267;28;886;-83
2022/06/10 00:59:55;;;;;;;;;;;;;;;;;;343281;28;984;-83
2022/06/10 01:00:08;;;;;;;;;;;;;;;;;;343201;28;898;-83
2022/06/10 01:00:18;;;;;;;;;;;;;;;;;;343253;28;925;-83
2022/06/10 01:00:29;;;;;;;;;;;;;;;;;;343222;28;779;-83
2022/06/10 01:00:39;;;;;;;;;;;;;;;;;;343205;28;1294;-83
2022/06/10 01:00:49;;;;;;;;;;;;;;;;;;343262;28;878;-83
2022/06/10 01:01:01;;;;;;;;;;;;;;;;;;343222;28;925;-83
2022/06/10 01:01:12;;;;;;;;;;;;;;;;;;343191;28;918;-83
2022/06/10 01:01:22;;;;;;;;;;;;;;;;;;343234;28;954;-82
2022/06/10 01:01:34;;;;;;;;;;;;;;;;;;343271;28;922;-83
2022/06/10 01:01:44;;;;;;;;;;;;;;;;;;343248;28;876;-83
2022/06/10 01:01:59;;;;;;;;;;;;;;;;;;343195;28;925;-83
2022/06/10 01:02:11;;;;;;;;;;;;;;;;;;343233;28;882;-83
2022/06/10 01:02:23;;;;;;;;;;;;;;;;;;343269;28;932;-83
2022/06/10 01:02:35;;;;;;;;;;;;;;;;;;343242;28;826;-83
2022/06/10 01:02:45;;;;;;;;;;;;;;;;;;343153;28;1037;-83
2022/06/10 01:02:56;;;;;;;;;;;;;;;;;;343246;28;958;-83
2022/06/10 01:03:06;;;;;;;;;;;;;;;;;;343206;28;958;-83
2022/06/10 01:03:16;;;;;;;;;;;;;;;;;;343028;28;1122;-83
2022/06/10 01:03:27;;;;;;;;;;;;;;;;;;343186;28;929;-83
2022/06/10 01:03:37;;;;;;;;;;;;;;;;;;343228;28;981;-82
2022/06/10 01:03:48;;;;;;;;;;;;;;;;;;343242;28;961;-83
2022/06/10 01:04:00;;;;;;;;;;;;;;;;;;343238;28;775;-83
2022/06/10 01:04:10;;;;;;;;;;;;;;;;;;343180;28;938;-83
2022/06/10 01:04:21;;;;;;;;;;;;;;;;;;343190;28;960;-83
2022/06/10 01:04:31;;;;;;;;;;;;;;;;;;343279;28;796;-83
2022/06/10 01:04:42;;;;;;;;;;;;;;;;;;343302;28;866;-83
2022/06/10 01:04:54;;;;;;;;;;;;;;;;;;343186;28;898;-83
2022/06/10 01:05:06;;;;;;;;;;;;;;;;;;343179;28;976;-83
2022/06/10 01:05:20;;;;;;;;;;;;;;;;;;343210;28;749;-83
2022/06/10 01:05:30;;;;;;;;;;;;;;;;;;343235;28;909;-83
2022/06/10 01:05:40;;;;;;;;;;;;;;;;;;343203;28;881;-83
2022/06/10 01:05:51;;;;;;;;;;;;;;;;;;343232;28;922;-83
2022/06/10 01:06:01;;;;;;;;;;;;;;;;;;343233;28;933;-83
2022/06/10 01:06:11;;;;;;;;;;;;;;;;;;343277;28;886;-83
2022/06/10 01:06:22;;;;;;;;;;;;;;;;;;343205;28;925;-83
2022/06/10 01:06:32;;;;;;;;;;;;;;;;;;343204;28;861;-83
2022/06/10 01:06:42;;;;;;;;;;;;;;;;;;343233;28;972;-83
2022/06/10 01:06:53;;;;;;;;;;;;;;;;;;343238;28;989;-83
2022/06/10 01:07:03;;;;;;;;;;;;;;;;;;343219;28;1056;-83
2022/06/10 01:07:20;;;;;;;;;;;;;;;;;;343187;28;926;-83
2022/06/10 01:07:32;;;;;;;;;;;;;;;;;;343251;28;790;-83
2022/06/10 01:07:44;;;;;;;;;;;;;;;;;;343253;28;914;-83
2022/06/10 01:08:03;;;;;;;;;;;;;;;;;;343198;28;985;-83
2022/06/10 01:08:15;;;;;;;;;;;;;;;;;;343164;28;941;-83
2022/06/10 01:08:26;;;;;;;;;;;;;;;;;;343233;28;843;-83
2022/06/10 01:08:37;;;;;;;;;;;;;;;;;;343222;28;780;-83
2022/06/10 01:08:48;;;;;;;;;;;;;;;;;;343172;28;1968;-83
2022/06/10 01:08:59;;;;;;;;;;;;;;;;;;343198;28;917;-83
2022/06/10 01:09:09;;;;;;;;;;;;;;;;;;343216;28;799;-83
2022/06/10 01:09:20;;;;;;;;;;;;;;;;;;343243;28;930;-83
2022/06/10 01:09:31;;;;;;;;;;;;;;;;;;343229;28;957;-83
2022/06/10 01:09:41;;;;;;;;;;;;;;;;;;343212;28;1043;-83
2022/06/10 01:09:51;;;;;;;;;;;;;;;;;;343266;28;944;-83
2022/06/10 01:10:04;;;;;;;;;;;;;;;;;;343199;28;878;-83
2022/06/10 01:10:15;;;;;;;;;;;;;;;;;;343089;28;1156;-83
2022/06/10 01:10:27;;;;;;;;;;;;;;;;;;343201;28;1028;-83
2022/06/10 01:10:46;;;;;;;;;;;;;;;;;;343166;28;741;-84
2022/06/10 01:11:15;;;;;;;;;;;;;;;;;;343233;28;930;-83
2022/06/10 01:11:32;;;;;;;;;;;;;;;;;;343170;28;871;-83
2022/06/10 01:11:43;;;;;;;;;;;;;;;;;;343198;28;997;-83
2022/06/10 01:11:59;;;;;;;;;;;;;;;;;;343208;28;780;-83
2022/06/10 01:12:15;;;;;;;;;;;;;;;;;;343126;28;984;-82
2022/06/10 01:12:44;;;;;;;;;;;;;;;;;;343201;28;1068;-83
2022/06/10 01:13:13;;;;;;;;;;;;;;;;;;343245;28;917;-82
2022/06/10 01:13:26;;;;;;;;;;;;;;;;;;343239;28;854;-83
2022/06/10 01:14:01;;;;;;;;;;;;;;;;;;343178;28;933;-83
2022/06/10 01:14:17;;;;;;;;;;;;;;;;;;343241;28;984;-83
2022/06/10 01:14:36;;;;;;;;;;;;;;;;;;343254;28;819;-83
2022/06/10 01:14:55;;;;;;;;;;;;;;;;;;343133;28;1035;-83
2022/06/10 01:15:24;;;;;;;;;;;;;;;;;;343161;28;914;-82
2022/06/10 01:15:53;;;;;;;;;;;;;;;;;;343237;28;869;-82
2022/06/10 01:16:14;;;;;;;;;;;;;;;;;;343207;28;1000;-83
2022/06/10 01:16:32;;;;;;;;;;;;;;;;;;343177;28;835;-82
2022/06/10 01:16:49;;;;;;;;;;;;;;;;;;343181;28;1013;-83
2022/06/10 01:17:08;;;;;;;;;;;;;;;;;;343107;28;995;-83
2022/06/10 01:17:24;;;;;;;;;;;;;;;;;;343215;28;977;-82
2022/06/10 01:17:53;;;;;;;;;;;;;;;;;;343196;28;835;-83
2022/06/10 01:18:15;;;;;;;;;;;;;;;;;;343160;28;1064;-82
2022/06/10 01:18:42;;;;;;;;;;;;;;;;;;343170;28;1013;-83
2022/06/10 01:19:11;;;;;;;;;;;;;;;;;;343187;28;917;-83
2022/06/10 01:19:47;;;;;;;;;;;;;;;;;;343129;28;914;-83
2022/06/10 01:19:57;;;;;;;;;;;;;;;;;;342937;28;1118;-83
2022/06/10 01:20:07;;;;;;;;;;;;;;;;;;343232;28;910;-83
2022/06/10 01:20:36;;;;;;;;;;;;;;;;;;343203;28;874;-83
2022/06/10 01:20:51;;;;;;;;;;;;;;;;;;343152;28;905;-83
2022/06/10 01:21:01;;;;;;;;;;;;;;;;;;343175;28;862;-83
2022/06/10 01:21:12;;;;;;;;;;;;;;;;;;343220;28;1175;-83
2022/06/10 01:21:22;;;;;;;;;;;;;;;;;;343218;28;942;-83
2022/06/10 01:21:48;;;;;;;;;;;;;;;;;;343138;28;926;-83
2022/06/10 01:22:22;;;;;;;;;;;;;;;;;;343181;28;985;-83
2022/06/10 01:22:50;;;;;;;;;;;;;;;;;;343197;28;925;-83
2022/06/10 01:23:09;;;;;;;;;;;;;;;;;;343165;28;970;-83
2022/06/10 01:23:33;;;;;;;;;;;;;;;;;;343165;28;787;-83
2022/06/10 01:24:03;;;;;;;;;;;;;;;;;;343240;28;826;-83
2022/06/10 01:24:27;;;;;;;;;;;;;;;;;;343188;28;945;-82
2022/06/10 01:24:46;;;;;;;;;;;;;;;;;;343200;28;981;-83
2022/06/10 01:25:11;;;;;;;;;;;;;;;;;;343169;28;942;-83
2022/06/10 01:25:21;;;;;;;;;;;;;;;;;;343122;28;926;-83
2022/06/10 01:25:57;;;;;;;;;;;;;;;;;;343100;28;839;-83
2022/06/10 01:26:31;;;;;;;;;;;;;;;;;;343157;28;781;-83
2022/06/10 01:27:57;;;;;;;;;;;;;;;;;;343141;28;926;-83
2022/06/10 01:28:26;;;;;;;;;;;;;;;;;;343241;28;984;-83
2022/06/10 01:28:55;;;;;;;;;;;;;;;;;;343124;28;918;-83
2022/06/10 01:29:22;;;;;;;;;;;;;;;;;;343172;28;953;-83
2022/06/10 01:29:32;;;;;;;;;;;;;;;;;;343170;28;830;-83
2022/06/10 01:29:51;;;;;;;;;;;;;;;;;;343131;28;925;-82
2022/06/10 01:30:13;;;;;;;;;;;;;;;;;;343201;28;1000;-83
2022/06/10 01:30:35;;;;;;;;;;;;;;;;;;343178;28;817;-83
2022/06/10 01:31:01;;;;;;;;;;;;;;;;;;343201;28;1111;-82
2022/06/10 01:31:17;;;;;;;;;;;;;;;;;;343210;28;953;-83
2022/06/10 01:31:36;;;;;;;;;;;;;;;;;;343139;28;1041;-83
2022/06/10 01:31:52;;;;;;;;;;;;;;;;;;343182;28;925;-83
2022/06/10 01:32:09;;;;;;;;;;;;;;;;;;343175;28;1013;-83
2022/06/10 01:32:28;;;;;;;;;;;;;;;;;;342917;28;1014;-83
2022/06/10 01:32:44;;;;;;;;;;;;;;;;;;343204;28;922;-82
2022/06/10 01:33:13;;;;;;;;;;;;;;;;;;343208;28;886;-83
2022/06/10 01:33:23;;;;;;;;;;;;;;;;;;343178;28;916;-82
2022/06/10 01:33:43;;;;;;;;;;;;;;;;;;343145;28;984;-83
2022/06/10 01:34:06;;;;;;;;;;;;;;;;;;343081;28;997;-82
2022/06/10 01:34:29;;;;;;;;;;;;;;;;;;343137;28;970;-83
2022/06/10 01:34:50;;;;;;;;;;;;;;;;;;343176;28;977;-83